Time;durP1;ratioP1;P1;durP2;ratioP2;P2;SDS_P1;SDS_P2;PMS_P1;PMS_P2;Temp;Humidity;BMP_temperature;BMP_pressure;BME280_temperature;BME280_humidity;BME280_pressure;Samples;Min_cycle;Max_cycle;Signal;HPM_P1;HPM_P2
2022/10/03 00:01:03;;;;;;;;;;;;;;;21.52;49.99;102511.31;4980369;28;20635;-51
2022/10/03 00:03:32;;;;;;;;;;;;;;;21.47;50.05;102516.13;4980764;28;19918;-51
2022/10/03 00:06:14;;;;;;;;;;;;;;;21.47;50.37;102520.63;4981414;28;19947;-48
2022/10/03 00:08:40;;;;;;;;;;;;;;;21.44;50.10;102517.19;4980178;28;20513;-49
2022/10/03 00:11:23;;;;;;;;;;;;;;;21.42;50.32;102521.81;4983312;28;20382;-48
2022/10/03 00:13:48;;;;;;;;;;;;;;;21.41;50.18;102524.59;4983284;28;20357;-48
2022/10/03 00:16:37;;;;;;;;;;;;;;;21.40;50.39;102512.09;4982314;28;19935;-49
2022/10/03 00:19:21;;;;;;;;;;;;;;;21.40;50.22;102528.25;4982833;28;19919;-48
2022/10/03 00:21:46;;;;;;;;;;;;;;;21.38;50.41;102519.41;4990199;28;19924;-47
2022/10/03 00:24:30;;;;;;;;;;;;;;;21.33;50.45;102525.09;4982856;28;19984;-47
2022/10/03 00:26:58;;;;;;;;;;;;;;;21.34;50.55;102520.56;4991732;28;20399;-48
2022/10/03 00:29:42;;;;;;;;;;;;;;;21.32;50.12;102527.88;5014457;28;20048;-47
2022/10/03 00:32:26;;;;;;;;;;;;;;;21.30;50.33;102525.28;4983688;28;20501;-43
2022/10/03 00:34:51;;;;;;;;;;;;;;;21.28;50.48;102536.16;4983965;28;21264;-45
2022/10/03 00:37:35;;;;;;;;;;;;;;;21.29;50.25;102539.69;4983002;28;19975;-43
2022/10/03 00:40:17;;;;;;;;;;;;;;;21.28;50.34;102546.09;4987079;28;20610;-52
2022/10/03 00:43:00;;;;;;;;;;;;;;;21.28;50.41;102543.38;4987233;28;19921;-51
2022/10/03 00:45:32;;;;;;;;;;;;;;;21.26;50.03;102548.84;4985586;28;19980;-51
2022/10/03 00:47:57;;;;;;;;;;;;;;;21.25;50.48;102546.25;4986327;28;20059;-49
2022/10/03 00:50:41;;;;;;;;;;;;;;;21.23;50.28;102543.66;4986045;28;20452;-51
2022/10/03 00:53:09;;;;;;;;;;;;;;;21.21;50.06;102550.97;4985903;28;19963;-49
2022/10/03 00:55:53;;;;;;;;;;;;;;;21.22;49.98;102557.25;4986443;28;19956;-50
2022/10/03 00:58:21;;;;;;;;;;;;;;;21.21;50.44;102555.50;4986187;28;19932;-51
2022/10/03 01:00:50;;;;;;;;;;;;;;;21.14;50.61;102560.41;4986080;28;20020;-50
2022/10/03 01:03:15;;;;;;;;;;;;;;;21.15;50.12;102561.28;4986864;28;20392;-47
2022/10/03 01:05:54;;;;;;;;;;;;;;;21.14;50.40;102573.88;4986663;28;20387;-50
2022/10/03 01:08:28;;;;;;;;;;;;;;;21.15;50.09;102561.28;4986069;28;19949;-48
2022/10/03 01:11:12;;;;;;;;;;;;;;;21.14;50.51;102570.31;4985603;28;19928;-49
2022/10/03 01:13:55;;;;;;;;;;;;;;;21.11;50.02;102563.28;4986558;28;19940;-49
2022/10/03 01:16:40;;;;;;;;;;;;;;;21.09;50.59;102573.31;4977768;28;20329;-45
2022/10/03 01:19:25;;;;;;;;;;;;;;;21.11;50.35;102564.16;4985736;28;19990;-50
2022/10/03 01:22:09;;;;;;;;;;;;;;;21.05;50.17;102572.63;4986748;28;20673;-51
2022/10/03 01:24:43;;;;;;;;;;;;;;;21.04;50.13;102570.03;4986151;28;20554;-46
2022/10/03 01:27:20;;;;;;;;;;;;;;;21.03;50.05;102558.38;4986320;28;19921;-43
2022/10/03 01:32:51;;;;;;;;;;;;;;;21.02;50.38;102564.72;4985034;28;20400;-42
2022/10/03 01:35:35;;;;;;;;;;;;;;;20.99;50.20;102564.91;4986094;28;21619;-47
2022/10/03 01:38:05;;;;;;;;;;;;;;;20.98;50.17;102565.88;4984788;28;19976;-50
2022/10/03 01:40:39;;;;;;;;;;;;;;;21.00;50.16;102577.44;4985812;28;19953;-50
2022/10/03 01:43:08;;;;;;;;;;;;;;;21.00;50.26;102573.84;4985140;28;19917;-48
2022/10/03 01:45:42;;;;;;;;;;;;;;;20.99;49.99;102570.31;4991575;28;20249;-48
2022/10/03 01:48:11;;;;;;;;;;;;;;;20.93;50.03;102562.59;4984491;28;19925;-50
2022/10/03 01:50:55;;;;;;;;;;;;;;;20.93;50.20;102568.88;4984669;28;19936;-48
2022/10/03 01:53:39;;;;;;;;;;;;;;;20.90;50.30;102563.66;4986343;28;20432;-48
2022/10/03 01:56:07;;;;;;;;;;;;;;;20.90;50.53;102576.28;4985363;28;19921;-49
2022/10/03 01:58:38;;;;;;;;;;;;;;;20.91;50.21;102564.53;4986090;28;20451;-44
2022/10/03 02:01:13;;;;;;;;;;;;;;;20.89;50.17;102569.16;4985297;28;19917;-43
2022/10/03 02:03:49;;;;;;;;;;;;;;;20.84;50.36;102577.50;4984322;28;19943;-42
2022/10/03 02:06:33;;;;;;;;;;;;;;;20.87;50.39;102571.94;4986008;28;19921;-43
2022/10/03 02:09:17;;;;;;;;;;;;;;;20.85;50.23;102576.53;4983044;28;20360;-44
2022/10/03 02:11:43;;;;;;;;;;;;;;;20.83;50.35;102577.59;4985451;28;19921;-45
2022/10/03 02:14:28;;;;;;;;;;;;;;;20.82;50.76;102571.34;4984704;28;19917;-43
2022/10/03 02:17:02;;;;;;;;;;;;;;;20.83;50.64;102577.59;4985590;28;21645;-43
2022/10/03 02:19:47;;;;;;;;;;;;;;;20.81;50.24;102577.69;4985466;28;19921;-48
2022/10/03 02:22:14;;;;;;;;;;;;;;;20.78;50.69;102580.56;4985185;28;19932;-51
2022/10/03 02:24:49;;;;;;;;;;;;;;;20.77;50.52;102584.22;4985831;28;20048;-47
2022/10/03 02:27:24;;;;;;;;;;;;;;;20.75;50.52;102576.22;4977482;28;19921;-49
2022/10/03 02:30:10;;;;;;;;;;;;;;;20.75;50.47;102570.84;4984665;28;20019;-47
2022/10/03 02:32:54;;;;;;;;;;;;;;;20.77;50.84;102573.47;4983537;28;19928;-45
2022/10/03 02:35:25;;;;;;;;;;;;;;;20.73;50.33;102563.81;4984354;28;20857;-44
2022/10/03 02:37:56;;;;;;;;;;;;;;;20.74;50.65;102565.56;4980724;28;19925;-49
2022/10/03 02:40:24;;;;;;;;;;;;;;;20.74;50.92;102560.16;4985179;28;19939;-49
2022/10/03 02:43:03;;;;;;;;;;;;;;;20.72;50.60;102564.81;4984642;28;19929;-44
2022/10/03 02:45:47;;;;;;;;;;;;;;;20.75;50.28;102572.69;4984773;28;19925;-43
2022/10/03 02:48:31;;;;;;;;;;;;;;;20.72;50.83;102570.19;4984924;28;20581;-49
2022/10/03 02:51:08;;;;;;;;;;;;;;;20.70;50.79;102567.56;4984435;28;19921;-48
2022/10/03 02:54:06;;;;;;;;;;;;;;;20.69;50.51;102576.59;5016337;28;20020;-50
2022/10/03 02:56:43;;;;;;;;;;;;;;;20.66;50.75;102578.59;4984183;28;20315;-42
2022/10/03 02:59:27;;;;;;;;;;;;;;;20.65;50.48;102575.00;4984682;28;19923;-43
2022/10/03 03:01:58;;;;;;;;;;;;;;;20.63;50.79;102569.72;4982344;28;20448;-44
2022/10/03 03:04:42;;;;;;;;;;;;;;;20.64;50.43;102573.31;4983784;28;20000;-43
2022/10/03 03:07:07;;;;;;;;;;;;;;;20.61;50.90;102577.06;4983798;28;20019;-42
2022/10/03 03:09:51;;;;;;;;;;;;;;;20.61;50.37;102576.16;4983640;28;20336;-44
2022/10/03 03:12:42;;;;;;;;;;;;;;;20.59;50.50;102578.94;4984347;28;20024;-43
2022/10/03 03:15:25;;;;;;;;;;;;;;;20.59;50.92;102572.72;4983910;28;19934;-43
2022/10/03 03:18:03;;;;;;;;;;;;;;;20.57;51.00;102571.94;4983886;28;20487;-47
2022/10/03 03:20:38;;;;;;;;;;;;;;;20.60;50.57;102575.31;4983766;28;19929;-44
2022/10/03 03:23:32;;;;;;;;;;;;;;;20.57;50.95;102574.63;4983972;28;19921;-43
2022/10/03 03:25:57;;;;;;;;;;;;;;;20.55;50.85;102581.91;4983605;28;19917;-45
2022/10/03 03:28:22;;;;;;;;;;;;;;;20.55;50.63;102584.59;4983318;28;19917;-42
2022/10/03 03:30:58;;;;;;;;;;;;;;;20.55;50.49;102581.91;4983013;28;20047;-43
2022/10/03 03:33:29;;;;;;;;;;;;;;;20.52;51.00;102582.09;4982363;28;20352;-42
2022/10/03 03:35:54;;;;;;;;;;;;;;;20.55;51.04;102581.91;4983758;28;19928;-49
2022/10/03 03:38:38;;;;;;;;;;;;;;;20.55;50.82;102580.09;4983234;28;19948;-48
2022/10/03 03:41:19;;;;;;;;;;;;;;;20.53;50.57;102583.84;4983631;28;19961;-48
2022/10/03 03:44:05;;;;;;;;;;;;;;;20.49;50.59;102583.16;4984227;28;20332;-43
2022/10/03 03:46:49;;;;;;;;;;;;;;;20.49;50.93;102579.56;4982806;28;20417;-48
2022/10/03 03:49:29;;;;;;;;;;;;;;;20.48;51.03;102589.50;4983547;28;19924;-48
2022/10/03 03:51:55;;;;;;;;;;;;;;;20.50;50.59;102584.00;4982589;28;20040;-49
2022/10/03 03:54:33;;;;;;;;;;;;;;;20.51;51.01;102594.69;4982777;28;20458;-48
2022/10/03 03:57:01;;;;;;;;;;;;;;;20.48;50.96;102589.50;4982781;28;20853;-48
2022/10/03 03:59:52;;;;;;;;;;;;;;;20.46;50.82;102589.59;4982247;28;19917;-49
2022/10/03 04:02:17;;;;;;;;;;;;;;;20.47;50.88;102582.38;4982947;28;19921;-47
2022/10/03 04:04:45;;;;;;;;;;;;;;;20.44;50.98;102586.09;4982765;28;20140;-53
2022/10/03 04:07:23;;;;;;;;;;;;;;;20.45;50.90;102595.06;4982769;28;20596;-48
2022/10/03 04:09:48;;;;;;;;;;;;;;;20.42;50.98;102593.41;5014337;28;19957;-52
2022/10/03 04:12:16;;;;;;;;;;;;;;;20.41;50.65;102591.69;4982004;28;19928;-47
2022/10/03 04:14:54;;;;;;;;;;;;;;;20.43;50.61;102592.44;4982042;28;19926;-49
2022/10/03 04:20:43;;;;;;;;;;;;;;;20.43;50.78;102591.59;4989875;28;20592;-42
2022/10/03 04:23:21;;;;;;;;;;;;;;;20.41;51.18;102596.19;4985094;28;19917;-43
2022/10/03 04:25:47;;;;;;;;;;;;;;;20.48;51.51;102589.50;4971880;28;20763;-38
2022/10/03 04:28:17;;;;;;;;;;;;;;;20.56;51.24;102598.00;4976835;28;19957;-40
2022/10/03 04:30:52;;;;;;;;;;;;;;;20.59;51.87;102588.88;4975230;28;20483;-40
2022/10/03 04:33:20;;;;;;;;;;;;;;;20.59;51.57;102603.19;4976833;28;20386;-39
2022/10/03 04:35:45;;;;;;;;;;;;;;;20.63;52.12;102604.72;4977835;28;20400;-39
2022/10/03 04:38:25;;;;;;;;;;;;;;;20.67;51.78;102601.88;4978257;28;19925;-37
2022/10/03 04:41:10;;;;;;;;;;;;;;;20.71;51.66;102609.69;4977052;28;19949;-37
2022/10/03 04:43:47;;;;;;;;;;;;;;;20.73;51.63;102609.56;4977651;28;19922;-38
2022/10/03 04:46:15;;;;;;;;;;;;;;;20.74;51.69;102601.44;5008598;28;19999;-38
2022/10/03 04:48:49;;;;;;;;;;;;;;;20.76;51.79;102604.88;4978609;28;20339;-38
2022/10/03 04:51:23;;;;;;;;;;;;;;;20.76;52.00;102602.19;4977053;28;20255;-41
2022/10/03 04:53:55;;;;;;;;;;;;;;;20.81;51.61;102601.03;4976972;28;20447;-42
2022/10/03 04:56:23;;;;;;;;;;;;;;;20.85;51.69;102608.84;4976314;28;20203;-42
2022/10/03 04:59:00;;;;;;;;;;;;;;;20.86;51.45;102601.66;4977825;28;19924;-41
2022/10/03 05:01:25;;;;;;;;;;;;;;;20.86;51.97;102604.34;4977614;28;19921;-40
2022/10/03 05:04:09;;;;;;;;;;;;;;;20.87;51.55;102609.63;4976662;28;19949;-40
2022/10/03 05:06:47;;;;;;;;;;;;;;;20.89;51.50;102606.84;4975717;28;19921;-41
2022/10/03 05:09:31;;;;;;;;;;;;;;;20.90;51.48;102603.19;4976474;28;19943;-43
2022/10/03 05:12:15;;;;;;;;;;;;;;;20.90;51.31;102606.75;4977597;28;19953;-43
2022/10/03 05:14:48;;;;;;;;;;;;;;;20.94;51.43;102607.44;4976656;28;20125;-42
2022/10/03 05:17:20;;;;;;;;;;;;;;;20.94;51.46;102602.91;4967910;28;20328;-41
2022/10/03 05:19:46;;;;;;;;;;;;;;;20.98;51.44;102616.19;4977358;28;19960;-44
2022/10/03 05:22:31;;;;;;;;;;;;;;;20.97;51.39;102609.91;4976286;28;19921;-43
2022/10/03 05:24:59;;;;;;;;;;;;;;;20.95;51.72;102603.78;4977611;28;19983;-42
2022/10/03 05:27:33;;;;;;;;;;;;;;;20.96;51.38;102605.53;4979669;28;19921;-46
2022/10/03 05:30:01;;;;;;;;;;;;;;;20.98;51.19;102598.19;4980420;28;20534;-46
2022/10/03 05:32:36;;;;;;;;;;;;;;;21.01;51.22;102616.00;4980162;28;19995;-45
2022/10/03 05:35:16;;;;;;;;;;;;;;;21.03;51.70;102614.09;4980162;28;20428;-46
2022/10/03 05:37:47;;;;;;;;;;;;;;;20.99;51.64;102608.00;4979972;28;19921;-47
2022/10/03 05:40:23;;;;;;;;;;;;;;;20.93;51.46;102609.25;4979746;28;19917;-47
2022/10/03 05:42:50;;;;;;;;;;;;;;;20.90;51.43;102612.13;4980282;28;19921;-46
2022/10/03 05:45:34;;;;;;;;;;;;;;;21.02;51.42;102618.59;4979365;28;19956;-46
2022/10/03 05:48:11;;;;;;;;;;;;;;;21.24;50.51;102626.22;4980556;28;19925;-36
2022/10/03 05:51:12;;;;;;;;;;;;;;;21.42;50.15;102617.94;4978937;28;19922;-37
2022/10/03 05:53:52;;;;;;;;;;;;;;;21.57;49.12;102622.41;4970124;28;21203;-46
2022/10/03 05:56:36;;;;;;;;;;;;;;;21.65;48.86;102610.25;4979763;28;20431;-48
2022/10/03 05:59:07;;;;;;;;;;;;;;;21.67;48.93;102632.63;4979269;28;19921;-46
2022/10/03 06:01:51;;;;;;;;;;;;;;;21.68;48.92;102621.72;4971909;28;19942;-46
2022/10/03 06:04:17;;;;;;;;;;;;;;;21.79;48.91;102618.34;4979864;28;19944;-47
2022/10/03 06:07:00;;;;;;;;;;;;;;;21.89;49.33;102626.69;4978616;28;19921;-36
2022/10/03 06:09:36;;;;;;;;;;;;;;;21.86;49.42;102616.97;4979802;28;19921;-37
2022/10/03 06:12:01;;;;;;;;;;;;;;;21.89;49.50;102613.22;4979986;28;19921;-37
2022/10/03 06:14:53;;;;;;;;;;;;;;;21.94;49.33;102616.47;4978391;28;20000;-45
2022/10/03 06:17:34;;;;;;;;;;;;;;;21.97;49.47;102626.19;4992987;28;20526;-37
2022/10/03 06:20:15;;;;;;;;;;;;;;;22.06;49.27;102625.63;4979792;28;19921;-37
2022/10/03 06:22:46;;;;;;;;;;;;;;;22.06;49.18;102626.47;4979333;28;19921;-47
2022/10/03 06:25:30;;;;;;;;;;;;;;;22.05;49.20;102630.13;4979343;28;19921;-47
2022/10/03 06:27:58;;;;;;;;;;;;;;;22.05;49.39;102629.28;4978928;28;19921;-45
2022/10/03 06:30:45;;;;;;;;;;;;;;;22.04;49.03;102631.09;4978590;28;19940;-45
2022/10/03 06:33:29;;;;;;;;;;;;;;;22.03;49.46;102642.84;4979072;28;20007;-37
2022/10/03 06:36:00;;;;;;;;;;;;;;;22.01;49.17;102635.81;5010106;28;20542;-48
2022/10/03 06:38:44;;;;;;;;;;;;;;;21.98;49.66;102644.13;4977510;28;19936;-46
2022/10/03 06:41:28;;;;;;;;;;;;;;;21.97;49.55;102635.16;4977564;28;19945;-45
2022/10/03 06:44:11;;;;;;;;;;;;;;;21.97;49.38;102643.25;4977274;28;19929;-37
2022/10/03 06:46:49;;;;;;;;;;;;;;;21.96;49.43;102646.03;4977042;28;19929;-37
2022/10/03 06:49:23;;;;;;;;;;;;;;;21.96;49.60;102641.53;4977377;28;19925;-38
2022/10/03 06:51:54;;;;;;;;;;;;;;;21.92;49.24;102637.31;4976805;28;20105;-37
2022/10/03 06:54:38;;;;;;;;;;;;;;;21.89;49.31;102643.75;4978142;28;19928;-39
2022/10/03 06:57:23;;;;;;;;;;;;;;;21.89;49.22;102642.88;4969161;28;19979;-37
2022/10/03 06:59:48;;;;;;;;;;;;;;;21.86;49.51;102649.34;4979128;28;19921;-43
2022/10/03 07:02:22;;;;;;;;;;;;;;;21.84;49.72;102653.97;4978172;28;19971;-42
2022/10/03 07:05:02;;;;;;;;;;;;;;;21.82;49.36;102655.91;4977635;28;20044;-43
2022/10/03 07:07:46;;;;;;;;;;;;;;;21.83;49.36;102657.63;4977901;28;20638;-43
2022/10/03 07:10:35;;;;;;;;;;;;;;;21.83;49.19;102657.63;4979208;28;19963;-47
2022/10/03 07:13:05;;;;;;;;;;;;;;;21.86;49.52;102668.22;4977905;28;19929;-46
2022/10/03 07:15:50;;;;;;;;;;;;;;;21.87;49.07;102661.84;4978268;28;19979;-37
2022/10/03 07:18:22;;;;;;;;;;;;;;;21.87;48.91;102669.09;4978749;28;20401;-46
2022/10/03 07:21:05;;;;;;;;;;;;;;;21.86;49.24;102667.34;4978107;28;19924;-45
2022/10/03 07:23:43;;;;;;;;;;;;;;;21.83;49.19;102673.81;4977162;28;19917;-46
2022/10/03 07:26:09;;;;;;;;;;;;;;;21.82;49.41;102673.91;4976818;28;19917;-37
2022/10/03 07:28:35;;;;;;;;;;;;;;;21.83;49.31;102672.94;4976548;28;20233;-36
2022/10/03 07:31:09;;;;;;;;;;;;;;;21.82;49.37;102672.06;4977458;28;19975;-44
2022/10/03 07:33:53;;;;;;;;;;;;;;;21.77;49.16;102677.75;4973670;28;20761;-44
2022/10/03 07:39:32;;;;;;;;;;;;;;;21.82;49.80;102666.69;4976386;28;20459;-47
2022/10/03 07:42:03;;;;;;;;;;;;;;;21.80;49.45;102668.59;4976344;28;20003;-47
2022/10/03 07:44:50;;;;;;;;;;;;;;;21.79;49.65;102666.00;4976427;28;19932;-48
2022/10/03 07:47:21;;;;;;;;;;;;;;;21.79;49.85;102668.69;4974266;28;19995;-48
2022/10/03 07:50:05;;;;;;;;;;;;;;;21.78;49.65;102675.94;4976452;28;19923;-43
2022/10/03 07:52:49;;;;;;;;;;;;;;;21.78;49.68;102678.63;4975709;28;19918;-52
2022/10/03 07:55:18;;;;;;;;;;;;;;;21.79;49.85;102677.69;4974388;28;20476;-44
2022/10/03 07:58:02;;;;;;;;;;;;;;;21.82;49.64;102679.31;4975819;28;20012;-53
2022/10/03 08:00:35;;;;;;;;;;;;;;;21.83;49.89;102686.41;4976178;28;19921;-42
2022/10/03 08:03:04;;;;;;;;;;;;;;;21.84;49.67;102688.16;5007006;28;20413;-44
2022/10/03 08:05:45;;;;;;;;;;;;;;;21.88;49.82;102693.25;4975721;28;20264;-41
2022/10/03 08:08:17;;;;;;;;;;;;;;;21.84;50.11;102696.25;4976026;28;19925;-52
2022/10/03 08:10:59;;;;;;;;;;;;;;;21.88;50.10;102698.66;4974137;28;19921;-39
2022/10/03 08:13:30;;;;;;;;;;;;;;;21.92;49.84;102697.50;4975369;28;19928;-38
2022/10/03 08:16:07;;;;;;;;;;;;;;;21.97;49.77;102697.22;4974079;28;19925;-38
2022/10/03 08:18:35;;;;;;;;;;;;;;;22.01;49.99;102698.75;4976527;28;21814;-38
2022/10/03 08:21:02;;;;;;;;;;;;;;;22.03;49.80;102698.63;4975403;28;20543;-40
2022/10/03 08:23:30;;;;;;;;;;;;;;;22.01;49.76;102697.84;4975363;28;19925;-39
2022/10/03 08:26:04;;;;;;;;;;;;;;;22.03;49.58;102701.34;4974817;28;20001;-39
2022/10/03 08:28:35;;;;;;;;;;;;;;;22.03;49.82;102701.34;4974212;28;20115;-39
2022/10/03 08:31:24;;;;;;;;;;;;;;;22.06;49.48;102703.84;4973771;28;19943;-41
2022/10/03 08:34:21;;;;;;;;;;;;;;;22.14;49.73;102703.34;4974260;28;19928;-41
2022/10/03 08:36:46;;;;;;;;;;;;;;;22.21;49.51;102699.28;4992404;28;19925;-42
2022/10/03 08:39:24;;;;;;;;;;;;;;;22.19;49.73;102702.06;4974082;28;19967;-40
2022/10/03 08:41:52;;;;;;;;;;;;;;;22.11;50.30;102707.13;4973312;28;19921;-46
2022/10/03 08:44:20;;;;;;;;;;;;;;;22.07;50.10;102703.75;4974790;28;19918;-46
2022/10/03 08:46:51;;;;;;;;;;;;;;;22.06;50.25;102703.84;4973345;28;20410;-48
2022/10/03 08:49:35;;;;;;;;;;;;;;;22.05;50.26;102696.72;4975038;28;20293;-45
2022/10/03 08:52:11;;;;;;;;;;;;;;;22.08;50.29;102688.41;4974875;28;19921;-45
2022/10/03 08:54:37;;;;;;;;;;;;;;;22.13;50.24;102691.69;4972872;28;20039;-38
2022/10/03 08:57:22;;;;;;;;;;;;;;;22.09;50.56;102695.53;4975294;28;20481;-42
2022/10/03 09:00:02;;;;;;;;;;;;;;;22.09;50.67;102687.44;4982761;28;20386;-42
2022/10/03 09:02:42;;;;;;;;;;;;;;;22.08;50.85;102691.09;4981929;28;19917;-41
2022/10/03 09:05:26;;;;;;;;;;;;;;;22.09;51.18;102691.00;4980774;28;19963;-41
2022/10/03 09:07:52;;;;;;;;;;;;;;;22.11;51.04;102693.63;4981650;28;20297;-49
2022/10/03 09:10:32;;;;;;;;;;;;;;;22.13;51.00;102698.91;4981015;28;19957;-48
2022/10/03 09:13:11;;;;;;;;;;;;;;;22.14;50.94;102692.56;4980977;28;20071;-52
2022/10/03 09:15:55;;;;;;;;;;;;;;;22.14;51.01;102687.16;4981081;28;20582;-44
2022/10/03 09:18:23;;;;;;;;;;;;;;;22.18;50.79;102692.25;4980667;28;19960;-40
2022/10/03 09:21:11;;;;;;;;;;;;;;;22.22;50.73;102690.22;4979242;28;20874;-50
2022/10/03 09:23:55;;;;;;;;;;;;;;;22.23;50.95;102686.56;4979495;28;19921;-49
2022/10/03 09:26:36;;;;;;;;;;;;;;;22.22;50.69;102692.91;4980942;28;20262;-50
2022/10/03 09:29:05;;;;;;;;;;;;;;;22.22;50.95;102685.69;4979643;28;19921;-49
2022/10/03 09:31:48;;;;;;;;;;;;;;;22.24;50.87;102693.69;4980825;28;20855;-57
2022/10/03 09:34:14;;;;;;;;;;;;;;;22.24;50.93;102688.31;4980631;28;19923;-55
2022/10/03 09:36:39;;;;;;;;;;;;;;;22.24;50.91;102696.41;4978659;28;20866;-52
2022/10/03 09:39:20;;;;;;;;;;;;;;;22.25;50.86;102698.09;4980241;28;19917;-50
2022/10/03 09:42:04;;;;;;;;;;;;;;;22.24;51.02;102696.41;4979244;28;19920;-50
2022/10/03 09:44:38;;;;;;;;;;;;;;;22.23;50.87;102692.81;4979088;28;20413;-51
2022/10/03 09:47:21;;;;;;;;;;;;;;;22.27;50.87;102693.47;4978578;28;19921;-38
2022/10/03 09:50:02;;;;;;;;;;;;;;;22.31;50.80;102689.59;4978689;28;20388;-45
2022/10/03 09:52:28;;;;;;;;;;;;;;;22.35;50.61;102684.88;4979044;28;20369;-43
2022/10/03 09:55:12;;;;;;;;;;;;;;;22.35;50.75;102687.56;4972324;28;19963;-41
2022/10/03 09:57:41;;;;;;;;;;;;;;;22.36;50.67;102692.91;4978523;28;20383;-39
2022/10/03 10:00:18;;;;;;;;;;;;;;;22.38;50.61;102690.97;4979832;28;19917;-41
2022/10/03 10:02:55;;;;;;;;;;;;;;;22.40;50.60;102689.06;4977935;28;19956;-47
2022/10/03 10:05:23;;;;;;;;;;;;;;;22.42;51.14;102700.59;5010526;28;20278;-48
2022/10/03 10:08:07;;;;;;;;;;;;;;;22.43;50.92;102690.69;4979090;28;20403;-40
2022/10/03 10:10:51;;;;;;;;;;;;;;;22.42;51.21;102697.91;4977190;28;20320;-46
2022/10/03 10:13:35;;;;;;;;;;;;;;;22.43;51.55;102693.38;4978293;28;19924;-49
2022/10/03 10:16:14;;;;;;;;;;;;;;;22.42;51.58;102686.25;4978058;28;19925;-39
2022/10/03 10:18:58;;;;;;;;;;;;;;;22.43;51.93;102685.28;4978407;28;19995;-39
2022/10/03 10:21:42;;;;;;;;;;;;;;;22.47;52.07;102680.53;4978792;28;19980;-41
2022/10/03 10:24:22;;;;;;;;;;;;;;;22.47;52.37;102688.63;4978897;28;19928;-40
2022/10/03 10:26:53;;;;;;;;;;;;;;;22.45;52.64;102688.72;4978182;28;19921;-40
2022/10/03 10:29:32;;;;;;;;;;;;;;;22.45;52.73;102693.28;4977123;28;19922;-39
2022/10/03 10:31:57;;;;;;;;;;;;;;;22.46;52.38;102692.31;4977640;28;20015;-37
2022/10/03 10:34:41;;;;;;;;;;;;;;;22.57;52.00;102681.66;4978134;28;20301;-40
2022/10/03 10:37:25;;;;;;;;;;;;;;;22.50;52.48;102680.34;4977195;28;19987;-41
2022/10/03 10:40:05;;;;;;;;;;;;;;;22.47;52.47;102684.09;4978563;28;19928;-43
2022/10/03 10:42:49;;;;;;;;;;;;;;;22.50;52.46;102680.34;4977923;28;19973;-41
2022/10/03 10:45:34;;;;;;;;;;;;;;;22.49;52.46;102694.81;4977296;28;20362;-41
2022/10/03 10:48:15;;;;;;;;;;;;;;;22.48;52.70;102690.38;4978711;28;20576;-43
2022/10/03 10:50:56;;;;;;;;;;;;;;;22.49;52.71;102684.00;4976649;28;19927;-44
2022/10/03 10:53:40;;;;;;;;;;;;;;;22.49;52.75;102682.16;4977052;28;20277;-43
2022/10/03 10:56:08;;;;;;;;;;;;;;;22.48;52.67;102682.25;4978048;28;19928;-43
2022/10/03 10:58:52;;;;;;;;;;;;;;;22.48;52.57;102685.84;4978113;28;19997;-49
2022/10/03 11:01:32;;;;;;;;;;;;;;;22.47;52.84;102680.53;4979000;28;20546;-48
2022/10/03 11:03:58;;;;;;;;;;;;;;;22.48;53.09;102684.97;4977604;28;19921;-52
2022/10/03 11:06:41;;;;;;;;;;;;;;;22.47;52.89;102683.22;4977678;28;19921;-52
2022/10/03 11:09:07;;;;;;;;;;;;;;;22.48;53.10;102679.56;4977495;28;20665;-44
2022/10/03 11:11:51;;;;;;;;;;;;;;;22.50;53.06;102683.91;4977976;28;20075;-53
2022/10/03 11:14:35;;;;;;;;;;;;;;;22.53;52.87;102691.81;4976003;28;19968;-54
2022/10/03 11:17:16;;;;;;;;;;;;;;;22.53;52.88;102688.22;4974720;28;19932;-50
2022/10/03 11:19:59;;;;;;;;;;;;;;;22.57;53.18;102687.03;4976975;28;20032;-49
2022/10/03 11:22:44;;;;;;;;;;;;;;;22.60;53.49;102684.16;4970318;28;19960;-47
2022/10/03 11:25:16;;;;;;;;;;;;;;;22.63;53.20;102688.47;4983470;28;20038;-50
2022/10/03 11:28:00;;;;;;;;;;;;;;;22.66;53.13;102694.56;4970599;28;19921;-50
2022/10/03 11:30:45;;;;;;;;;;;;;;;22.65;53.35;102683.81;4969690;28;20288;-48
2022/10/03 11:33:22;;;;;;;;;;;;;;;22.66;53.04;102685.56;4977850;28;19926;-48
2022/10/03 11:35:47;;;;;;;;;;;;;;;22.56;53.51;102682.63;4977908;28;20499;-48
2022/10/03 11:38:19;;;;;;;;;;;;;;;22.60;53.10;102681.47;4976220;28;19925;-43
2022/10/03 11:40:57;;;;;;;;;;;;;;;22.62;53.20;102673.25;4977378;28;21347;-43
2022/10/03 11:43:35;;;;;;;;;;;;;;;22.53;53.48;102677.44;4972022;28;20012;-39
2022/10/03 11:46:12;;;;;;;;;;;;;;;22.53;53.57;102669.31;4977179;28;19921;-42
2022/10/03 11:48:54;;;;;;;;;;;;;;;22.50;53.94;102672.25;4978314;28;20614;-45
2022/10/03 11:51:38;;;;;;;;;;;;;;;22.48;53.83;102672.34;4974401;28;19925;-43
2022/10/03 11:54:18;;;;;;;;;;;;;;;22.54;53.51;102668.38;4977095;28;20433;-45
2022/10/03 11:56:46;;;;;;;;;;;;;;;22.52;53.62;102673.00;4978484;28;19921;-45
2022/10/03 11:59:30;;;;;;;;;;;;;;;22.47;53.71;102667.91;4977520;28;19921;-44
2022/10/03 12:02:01;;;;;;;;;;;;;;;22.47;53.74;102661.63;4977663;28;19921;-44
2022/10/03 12:04:38;;;;;;;;;;;;;;;22.42;53.83;102661.97;4978201;28;20039;-46
2022/10/03 12:10:11;;;;;;;;;;;;;;;22.40;53.79;102662.06;4977353;28;20368;-43
2022/10/03 12:12:55;;;;;;;;;;;;;;;22.45;53.51;102669.84;4984572;28;19930;-45
2022/10/03 12:15:35;;;;;;;;;;;;;;;22.42;53.81;102672.75;4976370;28;19921;-40
2022/10/03 12:18:00;;;;;;;;;;;;;;;22.44;53.80;102667.25;4975694;28;21257;-48
2022/10/03 12:20:58;;;;;;;;;;;;;;;22.42;53.92;102665.50;4970093;28;19976;-46
2022/10/03 12:23:42;;;;;;;;;;;;;;;22.44;53.87;102665.41;4976145;28;20317;-44
2022/10/03 12:26:12;;;;;;;;;;;;;;;22.44;53.77;102659.16;4976520;28;19922;-40
2022/10/03 12:28:43;;;;;;;;;;;;;;;22.45;53.52;102660.88;4977561;28;19921;-39
2022/10/03 12:31:41;;;;;;;;;;;;;;;22.47;53.47;102653.53;4977222;28;20267;-42
2022/10/03 12:34:25;;;;;;;;;;;;;;;22.46;53.65;102665.31;4998698;28;20445;-42
2022/10/03 12:36:59;;;;;;;;;;;;;;;22.48;53.63;102658.84;4981512;28;20512;-46
2022/10/03 12:39:27;;;;;;;;;;;;;;;22.48;53.83;102653.47;4980639;28;19932;-52
2022/10/03 12:42:13;;;;;;;;;;;;;;;22.48;53.88;102658.84;4980589;28;19924;-47
2022/10/03 12:44:58;;;;;;;;;;;;;;;22.52;53.65;102659.50;4980190;28;19921;-39
2022/10/03 12:47:26;;;;;;;;;;;;;;;22.48;53.73;102650.75;4980407;28;19925;-49
2022/10/03 12:49:58;;;;;;;;;;;;;;;22.51;53.75;102649.69;4988262;28;20261;-50
2022/10/03 12:52:29;;;;;;;;;;;;;;;22.51;53.80;102652.38;4981058;28;19917;-44
2022/10/03 12:54:58;;;;;;;;;;;;;;;22.53;53.74;102650.44;4980271;28;19917;-46
2022/10/03 12:57:29;;;;;;;;;;;;;;;22.54;53.81;102649.47;4981231;28;19929;-46
2022/10/03 13:00:08;;;;;;;;;;;;;;;22.56;53.40;102636.75;4978742;28;19917;-38
2022/10/03 13:02:57;;;;;;;;;;;;;;;22.57;53.57;102643.84;4979910;28;19927;-47
2022/10/03 13:05:32;;;;;;;;;;;;;;;22.59;53.22;102642.78;4972874;28;19917;-47
2022/10/03 13:08:02;;;;;;;;;;;;;;;22.60;53.18;102643.66;4979993;28;19956;-47
2022/10/03 13:10:48;;;;;;;;;;;;;;;22.62;52.90;102646.25;4980179;28;20631;-46
2022/10/03 13:13:19;;;;;;;;;;;;;;;22.63;52.93;102643.44;4979270;28;20214;-50
2022/10/03 13:16:02;;;;;;;;;;;;;;;22.62;53.01;102630.91;4979202;28;19961;-50
2022/10/03 13:18:37;;;;;;;;;;;;;;;22.62;52.99;102632.75;4977054;28;20433;-41
2022/10/03 13:21:13;;;;;;;;;;;;;;;22.62;52.96;102632.75;4976452;28;19928;-40
2022/10/03 13:23:39;;;;;;;;;;;;;;;22.62;52.91;102636.28;4976122;28;20344;-39
2022/10/03 13:26:24;;;;;;;;;;;;;;;22.62;52.94;102633.59;4980346;28;19917;-41
2022/10/03 13:29:11;;;;;;;;;;;;;;;22.65;52.59;102630.72;4979747;28;20159;-39
2022/10/03 13:31:43;;;;;;;;;;;;;;;22.65;52.67;102635.22;4979547;28;20401;-38
2022/10/03 13:34:16;;;;;;;;;;;;;;;22.65;52.53;102628.00;4980469;28;19921;-39
2022/10/03 13:36:46;;;;;;;;;;;;;;;22.65;52.79;102632.53;4979899;28;19980;-41